createdAt,value
2018-08-06T00:00:01.790Z,20.09
2018-08-06T00:02:30.191Z,20.01
2018-08-06T00:04:58.681Z,20.01
2018-08-06T00:07:27.082Z,20.04
2018-08-06T00:09:55.542Z,19.99
2018-08-06T00:12:23.955Z,19.92
2018-08-06T00:14:52.373Z,19.85
2018-08-06T00:17:20.789Z,19.83
2018-08-06T00:19:49.220Z,19.76
2018-08-06T00:22:17.628Z,19.75
2018-08-06T00:24:46.042Z,19.72
2018-08-06T00:27:14.471Z,19.61
2018-08-06T00:29:43.067Z,19.61
2018-08-06T00:32:11.471Z,19.59
2018-08-06T00:34:39.902Z,19.57
2018-08-06T00:37:08.363Z,19.54
2018-08-06T00:39:36.771Z,19.65
2018-08-06T00:42:05.217Z,19.63
2018-08-06T00:44:33.652Z,19.55
2018-08-06T00:47:02.060Z,19.46
2018-08-06T00:49:30.476Z,19.37
2018-08-06T00:51:58.913Z,19.37
2018-08-06T00:54:27.336Z,19.40
2018-08-06T00:56:55.816Z,19.36
2018-08-06T00:59:24.224Z,19.20
2018-08-06T01:01:52.700Z,19.17
2018-08-06T01:04:21.103Z,19.15
2018-08-06T01:06:49.580Z,19.14
2018-08-06T01:09:18.047Z,19.09
2018-08-06T01:11:46.434Z,19.06
2018-08-06T01:14:14.832Z,19.07
2018-08-06T01:16:43.264Z,19.05
2018-08-06T01:19:11.700Z,19.00
2018-08-06T01:21:40.087Z,18.98
2018-08-06T01:24:08.559Z,18.93
2018-08-06T01:26:37.019Z,18.87
2018-08-06T01:29:05.471Z,18.83
2018-08-06T01:31:33.890Z,18.90
2018-08-06T01:34:02.361Z,18.96
2018-08-06T01:36:30.802Z,19.03
2018-08-06T01:38:59.214Z,18.96
2018-08-06T01:41:27.659Z,18.86
2018-08-06T01:43:56.070Z,18.87
2018-08-06T01:46:24.567Z,18.87
2018-08-06T01:48:52.993Z,18.82
2018-08-06T01:51:21.428Z,18.76
2018-08-06T01:53:49.875Z,18.71
2018-08-06T01:56:19.164Z,18.63
2018-08-06T01:58:47.572Z,18.54
2018-08-06T02:01:15.961Z,18.54
2018-08-06T02:03:44.384Z,18.50
2018-08-06T02:06:12.772Z,18.48
2018-08-06T02:08:41.164Z,18.56
2018-08-06T02:11:09.667Z,18.60
2018-08-06T02:13:38.161Z,18.55
2018-08-06T02:16:06.977Z,18.51
2018-08-06T02:18:35.414Z,18.39
2018-08-06T02:21:04.761Z,18.24
2018-08-06T02:23:33.188Z,18.24
2018-08-06T02:26:02.560Z,18.09
2018-08-06T02:28:31.007Z,17.99
2018-08-06T02:30:59.449Z,17.97
2018-08-06T02:33:27.888Z,17.88
2018-08-06T02:35:56.406Z,17.89
2018-08-06T02:38:24.856Z,17.94
2018-08-06T02:40:53.293Z,18.05
2018-08-06T02:43:21.729Z,18.08
2018-08-06T02:45:50.213Z,18.02
2018-08-06T02:48:18.709Z,17.99
2018-08-06T02:50:47.160Z,17.92
2018-08-06T02:53:15.739Z,17.85
2018-08-06T02:55:44.218Z,17.78
2018-08-06T02:58:12.668Z,17.75
2018-08-06T03:00:41.167Z,17.67
2018-08-06T03:03:09.579Z,17.72
2018-08-06T03:05:38.048Z,17.68
2018-08-06T03:08:06.611Z,17.61
2018-08-06T03:10:35.048Z,17.57
2018-08-06T03:13:03.455Z,17.62
2018-08-06T03:15:31.917Z,17.51
2018-08-06T03:18:00.366Z,17.47
2018-08-06T03:20:28.789Z,17.54
2018-08-06T03:22:57.221Z,17.50
2018-08-06T03:25:25.690Z,17.44
2018-08-06T03:27:54.137Z,17.36
2018-08-06T03:30:22.550Z,17.32
2018-08-06T03:32:51.005Z,17.31
2018-08-06T03:35:19.459Z,17.32
2018-08-06T03:37:48.193Z,17.36
2018-08-06T03:40:16.727Z,17.42
2018-08-06T03:42:45.121Z,17.39
2018-08-06T03:45:13.569Z,17.29
2018-08-06T03:47:43.461Z,17.19
2018-08-06T03:50:12.958Z,17.19
2018-08-06T03:52:41.407Z,17.26
2018-08-06T03:55:10.953Z,17.12
2018-08-06T03:57:39.861Z,17.08
2018-08-06T04:00:10.667Z,17.04
2018-08-06T04:02:39.311Z,16.95
2018-08-06T04:05:09.598Z,16.88
2018-08-06T04:07:38.201Z,16.93
2018-08-06T04:10:07.536Z,16.97
2018-08-06T04:12:36.039Z,16.94
2018-08-06T04:15:05.220Z,16.95
2018-08-06T04:17:33.895Z,16.97
2018-08-06T04:20:02.322Z,16.90
2018-08-06T04:22:30.820Z,16.84
2018-08-06T04:24:59.344Z,16.92
2018-08-06T04:27:27.728Z,16.86
2018-08-06T04:29:56.180Z,16.85
2018-08-06T04:32:24.636Z,16.95
2018-08-06T04:34:53.263Z,16.96
2018-08-06T04:37:21.701Z,16.99
2018-08-06T04:39:50.079Z,16.94
2018-08-06T04:42:18.506Z,16.80
2018-08-06T04:44:47.864Z,16.72
2018-08-06T04:47:16.458Z,16.75
2018-08-06T04:49:44.861Z,16.82
2018-08-06T04:52:14.280Z,16.92
2018-08-06T04:54:42.693Z,16.95
2018-08-06T04:57:11.128Z,16.94
2018-08-06T04:59:40.130Z,17.01
2018-08-06T05:02:09.176Z,16.94
2018-08-06T05:04:37.745Z,16.90
2018-08-06T05:07:06.347Z,16.89
2018-08-06T05:09:39.777Z,16.91
2018-08-06T05:12:09.300Z,16.95
2018-08-06T05:14:38.743Z,16.94
2018-08-06T05:17:07.802Z,16.95
2018-08-06T05:19:37.169Z,16.93
2018-08-06T05:22:06.110Z,16.98
2018-08-06T05:24:34.568Z,17.03
2018-08-06T05:27:03.064Z,17.04
2018-08-06T05:29:31.563Z,17.07
2018-08-06T05:32:00.055Z,17.09
2018-08-06T05:34:28.577Z,17.14
2018-08-06T05:37:00.066Z,17.25
2018-08-06T05:39:29.649Z,17.33
2018-08-06T05:41:58.099Z,17.39
2018-08-06T05:44:26.592Z,17.50
2018-08-06T05:46:55.061Z,17.53
2018-08-06T05:49:23.514Z,17.65
2018-08-06T05:51:51.915Z,17.77
2018-08-06T05:54:20.296Z,17.85
2018-08-06T05:56:48.732Z,17.93
2018-08-06T05:59:17.157Z,18.02
2018-08-06T06:01:45.683Z,18.08
2018-08-06T06:04:14.139Z,18.16
2018-08-06T06:06:42.632Z,18.27
2018-08-06T06:09:11.469Z,18.40
2018-08-06T06:11:40.083Z,18.50
2018-08-06T06:14:09.635Z,18.61
2018-08-06T06:16:38.096Z,18.67
2018-08-06T06:19:06.908Z,18.69
2018-08-06T06:21:35.432Z,18.73
2018-08-06T06:24:03.976Z,18.76
2018-08-06T06:26:32.413Z,18.79
2018-08-06T06:29:00.838Z,18.82
2018-08-06T06:31:29.282Z,18.87
2018-08-06T06:33:57.766Z,18.92
2018-08-06T06:36:26.316Z,18.98
2018-08-06T06:38:54.832Z,19.03
2018-08-06T06:41:23.308Z,19.07
2018-08-06T06:43:51.761Z,19.11
2018-08-06T06:46:20.198Z,19.16
2018-08-06T06:48:48.680Z,19.22
2018-08-06T06:51:17.066Z,19.29
2018-08-06T06:53:45.471Z,19.42
2018-08-06T06:56:14.450Z,19.50
2018-08-06T06:58:42.977Z,19.58
2018-08-06T07:01:11.453Z,19.66
2018-08-06T07:03:39.840Z,19.74
2018-08-06T07:06:08.312Z,19.80
2018-08-06T07:08:36.709Z,19.85
2018-08-06T07:11:05.125Z,19.93
2018-08-06T07:13:33.596Z,19.99
2018-08-06T07:16:02.025Z,20.06
2018-08-06T07:18:30.494Z,20.16
2018-08-06T07:20:58.923Z,20.24
2018-08-06T07:23:27.398Z,20.24
2018-08-06T07:25:55.963Z,20.38
2018-08-06T07:28:24.411Z,20.41
2018-08-06T07:30:52.917Z,20.42
2018-08-06T07:33:21.315Z,20.43
2018-08-06T07:35:49.745Z,20.52
2018-08-06T07:38:18.603Z,20.55
2018-08-06T07:40:47.073Z,20.61
2018-08-06T07:43:15.604Z,20.63
2018-08-06T07:45:44.042Z,20.63
2018-08-06T07:48:12.987Z,20.69
2018-08-06T07:50:41.429Z,20.78
2018-08-06T07:53:09.833Z,20.83
2018-08-06T07:55:38.334Z,20.89
2018-08-06T07:58:08.459Z,21.01
2018-08-06T08:00:37.197Z,21.08
2018-08-06T08:03:05.701Z,21.24
2018-08-06T08:05:34.168Z,21.38
2018-08-06T08:08:02.626Z,21.50
2018-08-06T08:10:31.032Z,21.81
2018-08-06T08:13:00.418Z,21.89
2018-08-06T08:15:28.947Z,21.87
2018-08-06T08:17:57.992Z,21.90
2018-08-06T08:20:26.712Z,21.87
2018-08-06T08:22:55.196Z,22.00
2018-08-06T08:25:24.059Z,22.03
2018-08-06T08:27:52.541Z,22.03
2018-08-06T08:30:21.204Z,22.14
2018-08-06T08:32:49.651Z,22.11
2018-08-06T08:35:18.337Z,22.19
2018-08-06T08:37:46.862Z,22.24
2018-08-06T08:40:17.567Z,22.23
2018-08-06T08:42:46.155Z,22.24
2018-08-06T08:45:16.193Z,22.23
2018-08-06T08:47:45.396Z,22.27
2018-08-06T08:50:15.357Z,22.35
2018-08-06T08:52:44.224Z,22.36
2018-08-06T08:55:14.468Z,22.46
2018-08-06T08:57:43.049Z,22.63
2018-08-06T09:00:15.007Z,22.81
2018-08-06T09:02:44.863Z,22.95
2018-08-06T09:05:13.496Z,22.90
2018-08-06T09:07:42.883Z,22.91
2018-08-06T09:10:12.902Z,22.93
2018-08-06T09:12:41.732Z,22.91
2018-08-06T09:15:16.580Z,22.93
2018-08-06T09:17:45.073Z,22.90
2018-08-06T09:20:13.603Z,22.94
2018-08-06T09:22:43.120Z,22.98
2018-08-06T09:25:12.348Z,22.94
2018-08-06T09:27:42.204Z,22.99
2018-08-06T09:30:14.170Z,23.09
2018-08-06T09:32:44.108Z,23.20
2018-08-06T09:35:13.265Z,23.30
2018-08-06T09:37:42.164Z,23.32
2018-08-06T09:40:12.971Z,23.35
2018-08-06T09:42:42.576Z,23.57
2018-08-06T09:45:13.082Z,23.66
2018-08-06T09:47:43.729Z,23.77
2018-08-06T09:50:12.999Z,23.69
2018-08-06T09:52:42.442Z,23.75
2018-08-06T09:55:12.796Z,23.77
2018-08-06T09:57:41.773Z,23.63
2018-08-06T10:00:18.776Z,23.68
2018-08-06T10:02:48.291Z,23.87
2018-08-06T10:05:16.977Z,23.96
2018-08-06T10:07:45.978Z,24.10
2018-08-06T10:10:14.668Z,24.09
2018-08-06T10:12:44.016Z,23.96
2018-08-06T10:15:13.015Z,24.10
2018-08-06T10:17:42.729Z,24.43
2018-08-06T10:20:14.107Z,24.41
2018-08-06T10:22:42.619Z,24.46
2018-08-06T10:25:12.311Z,24.30
2018-08-06T10:27:41.614Z,24.54
2018-08-06T10:30:13.210Z,24.78
2018-08-06T10:32:41.864Z,24.61
2018-08-06T10:35:11.777Z,24.53
2018-08-06T10:37:40.217Z,24.68
2018-08-06T10:40:13.159Z,24.62
2018-08-06T10:42:42.243Z,24.46
2018-08-06T10:45:14.140Z,24.55
2018-08-06T10:47:42.722Z,24.61
2018-08-06T10:50:11.577Z,24.77
2018-08-06T10:52:40.080Z,24.97
2018-08-06T10:55:09.737Z,24.99
2018-08-06T10:57:39.219Z,25.00
2018-08-06T11:00:10.023Z,25.00
2018-08-06T11:02:39.496Z,25.05
2018-08-06T11:05:09.401Z,25.08
2018-08-06T11:07:37.828Z,25.15
2018-08-06T11:10:09.153Z,25.15
2018-08-06T11:12:38.408Z,25.41
2018-08-06T11:15:09.314Z,25.50
2018-08-06T11:17:38.621Z,25.41
2018-08-06T11:20:08.466Z,25.35
2018-08-06T11:22:36.995Z,25.37
2018-08-06T11:25:05.471Z,25.25
2018-08-06T11:27:33.985Z,25.07
2018-08-06T11:30:02.437Z,25.02
2018-08-06T11:32:30.944Z,25.12
2018-08-06T11:34:59.811Z,25.09
2018-08-06T11:37:28.249Z,24.95
2018-08-06T11:39:56.704Z,24.96
2018-08-06T11:42:25.192Z,24.92
2018-08-06T11:44:53.590Z,25.04
2018-08-06T11:47:22.003Z,25.35
2018-08-06T11:49:50.440Z,25.39
2018-08-06T11:52:18.846Z,25.50
2018-08-06T11:54:47.321Z,25.45
2018-08-06T11:57:15.822Z,25.54
2018-08-06T11:59:45.392Z,25.58
2018-08-06T12:02:13.976Z,25.59
2018-08-06T12:04:42.780Z,25.62
2018-08-06T12:07:11.241Z,25.77
2018-08-06T12:09:39.630Z,25.76
2018-08-06T12:12:08.051Z,25.88
2018-08-06T12:14:36.472Z,26.00
2018-08-06T12:17:05.152Z,26.20
2018-08-06T12:19:33.613Z,26.83
2018-08-06T12:22:02.041Z,27.52
2018-08-06T12:24:30.481Z,28.16
2018-08-06T12:26:58.949Z,28.74
2018-08-06T12:29:27.676Z,29.09
2018-08-06T12:31:56.280Z,29.21
2018-08-06T12:34:24.651Z,29.32
2018-08-06T12:36:53.600Z,29.49
2018-08-06T12:39:22.348Z,29.68
2018-08-06T12:41:50.800Z,29.94
2018-08-06T12:44:19.276Z,30.28
2018-08-06T12:46:47.824Z,30.64
2018-08-06T12:49:16.314Z,30.84
2018-08-06T12:51:44.748Z,30.92
2018-08-06T12:54:13.225Z,31.11
2018-08-06T12:56:41.640Z,31.19
2018-08-06T12:59:10.145Z,31.40
2018-08-06T13:01:38.685Z,31.65
2018-08-06T13:04:07.151Z,31.71
2018-08-06T13:06:35.582Z,31.79
2018-08-06T13:09:06.189Z,31.76
2018-08-06T13:11:34.679Z,31.97
2018-08-06T13:14:04.262Z,32.02
2018-08-06T13:16:32.784Z,32.07
2018-08-06T13:19:01.248Z,32.12
2018-08-06T13:21:30.541Z,32.33
2018-08-06T13:23:58.941Z,32.44
2018-08-06T13:26:27.408Z,32.40
2018-08-06T13:28:55.845Z,32.43
2018-08-06T13:31:24.307Z,32.52
2018-08-06T13:33:52.722Z,32.56
2018-08-06T13:36:21.178Z,32.59
2018-08-06T13:38:49.690Z,32.56
2018-08-06T13:41:18.173Z,32.54
2018-08-06T13:43:46.556Z,32.44
2018-08-06T13:46:15.652Z,32.51
2018-08-06T13:48:44.122Z,32.45
2018-08-06T13:51:12.597Z,32.44
2018-08-06T13:53:41.004Z,32.25
2018-08-06T13:56:09.517Z,32.13
2018-08-06T13:58:37.938Z,32.20
2018-08-06T14:01:06.365Z,32.22
2018-08-06T14:03:34.862Z,32.27
2018-08-06T14:06:03.304Z,32.34
2018-08-06T14:08:31.780Z,32.21
2018-08-06T14:11:00.260Z,32.18
2018-08-06T14:13:28.752Z,32.06
2018-08-06T14:15:57.189Z,31.90
2018-08-06T14:18:25.651Z,31.92
2018-08-06T14:20:54.111Z,31.93
2018-08-06T14:23:22.572Z,32.06
2018-08-06T14:25:50.959Z,32.08
2018-08-06T14:28:19.513Z,32.08
2018-08-06T14:30:47.952Z,32.12
2018-08-06T14:33:16.400Z,32.06
2018-08-06T14:35:44.871Z,31.93
2018-08-06T14:38:13.451Z,31.81
2018-08-06T14:40:41.885Z,31.72
2018-08-06T14:43:10.319Z,31.73
2018-08-06T14:45:38.776Z,31.75
2018-08-06T14:48:07.336Z,31.78
2018-08-06T14:50:35.752Z,31.82
2018-08-06T14:53:04.260Z,31.81
2018-08-06T14:55:32.649Z,31.69
2018-08-06T14:58:01.151Z,31.68
2018-08-06T15:00:29.631Z,31.59
2018-08-06T15:02:58.073Z,31.60
2018-08-06T15:05:27.248Z,31.55
2018-08-06T15:07:55.634Z,31.47
2018-08-06T15:10:24.106Z,31.38
2018-08-06T15:12:52.514Z,31.24
2018-08-06T15:15:21.051Z,31.15
2018-08-06T15:17:49.432Z,31.07
2018-08-06T15:20:19.037Z,31.01
2018-08-06T15:22:47.880Z,30.96
2018-08-06T15:25:20.123Z,31.01
2018-08-06T15:27:48.495Z,30.99
2018-08-06T15:30:17.008Z,31.14
2018-08-06T15:32:45.443Z,31.32
2018-08-06T15:35:14.391Z,31.48
2018-08-06T15:37:43.719Z,31.50
2018-08-06T15:40:16.407Z,31.49
2018-08-06T15:42:44.945Z,31.42
2018-08-06T15:45:13.822Z,31.43
2018-08-06T15:47:43.040Z,31.53
2018-08-06T15:50:17.443Z,31.48
2018-08-06T15:52:45.988Z,31.55
2018-08-06T15:55:14.460Z,31.53
2018-08-06T15:57:42.972Z,31.47
2018-08-06T16:00:15.403Z,31.52
2018-08-06T16:02:44.755Z,31.60
2018-08-06T16:05:16.274Z,31.65
2018-08-06T16:07:45.141Z,31.72
2018-08-06T16:10:14.093Z,31.75
2018-08-06T16:12:42.682Z,31.84
2018-08-06T16:15:13.899Z,31.91
2018-08-06T16:17:43.019Z,32.01
2018-08-06T16:20:13.249Z,32.08
2018-08-06T16:22:42.033Z,32.10
2018-08-06T16:25:11.120Z,32.07
2018-08-06T16:27:39.596Z,32.08
2018-08-06T16:30:13.817Z,32.07
2018-08-06T16:32:42.635Z,32.06
2018-08-06T16:35:11.104Z,32.03
2018-08-06T16:37:39.609Z,32.09
2018-08-06T16:40:09.022Z,32.20
2018-08-06T16:42:37.438Z,32.25
2018-08-06T16:45:06.441Z,32.26
2018-08-06T16:47:35.045Z,32.31
2018-08-06T16:50:03.494Z,32.30
2018-08-06T16:52:32.033Z,32.34
2018-08-06T16:55:00.403Z,32.35
2018-08-06T16:57:28.900Z,32.33
2018-08-06T16:59:57.391Z,32.31
2018-08-06T17:02:25.853Z,32.31
2018-08-06T17:04:54.396Z,32.33
2018-08-06T17:07:23.045Z,32.28
2018-08-06T17:09:51.527Z,32.29
2018-08-06T17:12:20.087Z,32.32
2018-08-06T17:14:48.642Z,32.30
2018-08-06T17:17:17.179Z,32.29
2018-08-06T17:19:45.661Z,32.15
2018-08-06T17:22:14.150Z,32.17
2018-08-06T17:24:42.569Z,32.12
2018-08-06T17:27:10.990Z,32.06
2018-08-06T17:29:39.730Z,32.01
2018-08-06T17:32:08.161Z,31.93
2018-08-06T17:34:36.648Z,31.83
2018-08-06T17:37:05.091Z,31.73
2018-08-06T17:39:33.523Z,31.71
2018-08-06T17:42:01.933Z,31.63
2018-08-06T17:44:30.357Z,31.56
2018-08-06T17:46:58.803Z,31.49
2018-08-06T17:49:27.319Z,31.42
2018-08-06T17:51:55.760Z,31.34
2018-08-06T17:54:24.282Z,31.26
2018-08-06T17:56:52.684Z,31.16
2018-08-06T17:59:21.165Z,31.08
2018-08-06T18:01:49.965Z,30.97
2018-08-06T18:04:18.367Z,30.88
2018-08-06T18:06:46.834Z,30.86
2018-08-06T18:09:15.340Z,30.80
2018-08-06T18:11:43.735Z,30.66
2018-08-06T18:14:12.190Z,30.47
2018-08-06T18:16:40.644Z,30.28
2018-08-06T18:19:09.063Z,30.10
2018-08-06T18:21:38.356Z,29.98
2018-08-06T18:24:06.822Z,29.86
2018-08-06T18:26:35.217Z,29.81
2018-08-06T18:29:03.776Z,29.71
2018-08-06T18:31:32.232Z,29.64
2018-08-06T18:34:00.632Z,29.56
2018-08-06T18:36:29.074Z,29.48
2018-08-06T18:38:57.532Z,29.39
2018-08-06T18:41:25.985Z,29.28
2018-08-06T18:43:54.410Z,29.21
2018-08-06T18:46:22.853Z,29.20
2018-08-06T18:48:51.359Z,29.14
2018-08-06T18:51:20.039Z,29.07
2018-08-06T18:53:48.427Z,29.02
2018-08-06T18:56:16.896Z,28.98
2018-08-06T18:58:45.335Z,28.86
2018-08-06T19:01:13.771Z,28.73
2018-08-06T19:03:42.180Z,28.61
2018-08-06T19:06:10.695Z,28.48
2018-08-06T19:08:39.218Z,28.31
2018-08-06T19:11:07.802Z,28.22
2018-08-06T19:13:41.539Z,28.15
2018-08-06T19:16:10.013Z,28.08
2018-08-06T19:19:46.460Z,28.01
2018-08-06T19:22:14.841Z,27.91
2018-08-06T19:24:48.512Z,27.87
2018-08-06T19:27:16.945Z,27.55
2018-08-06T19:29:45.396Z,27.50
2018-08-06T19:32:13.876Z,27.56
2018-08-06T19:34:42.335Z,27.62
2018-08-06T19:37:15.978Z,27.56
2018-08-06T19:39:44.452Z,27.48
2018-08-06T19:42:12.883Z,27.40
2018-08-06T19:44:41.301Z,27.27
2018-08-06T19:47:09.811Z,27.22
2018-08-06T19:49:43.447Z,27.14
2018-08-06T19:52:11.907Z,27.04
2018-08-06T19:54:40.352Z,26.89
2018-08-06T19:57:08.776Z,26.77
2018-08-06T19:59:37.244Z,26.75
2018-08-06T20:02:05.715Z,26.75
2018-08-06T20:04:34.176Z,26.74
2018-08-06T20:07:02.621Z,26.68
2018-08-06T20:09:31.080Z,26.61
2018-08-06T20:11:59.487Z,26.54
2018-08-06T20:14:28.035Z,26.43
2018-08-06T20:16:56.510Z,26.24
2018-08-06T20:19:25.913Z,26.23
2018-08-06T20:21:54.379Z,26.18
2018-08-06T20:24:22.963Z,26.12
2018-08-06T20:26:51.421Z,26.02
2018-08-06T20:29:19.891Z,25.98
2018-08-06T20:31:48.351Z,25.96
2018-08-06T20:34:16.832Z,25.87
2018-08-06T20:36:45.259Z,25.76
2018-08-06T20:39:13.682Z,25.75
2018-08-06T20:41:42.154Z,25.79
2018-08-06T20:44:10.656Z,25.76
2018-08-06T20:46:39.129Z,25.61
2018-08-06T20:49:07.734Z,25.53
2018-08-06T20:51:36.173Z,25.51
2018-08-06T20:54:04.613Z,25.39
2018-08-06T20:56:33.093Z,25.34
2018-08-06T20:59:01.567Z,25.13
2018-08-06T21:01:30.154Z,25.00
2018-08-06T21:03:58.588Z,24.90
2018-08-06T21:06:27.071Z,24.82
2018-08-06T21:08:55.601Z,24.78
2018-08-06T21:11:24.072Z,24.70
2018-08-06T21:13:52.600Z,24.63
2018-08-06T21:16:21.026Z,24.64
2018-08-06T21:18:49.492Z,24.67
2018-08-06T21:21:17.924Z,24.75
2018-08-06T21:23:47.275Z,24.74
2018-08-06T21:26:15.995Z,24.70
2018-08-06T21:28:44.444Z,24.67
2018-08-06T21:31:13.623Z,24.61
2018-08-06T21:33:42.115Z,24.45
2018-08-06T21:36:10.541Z,24.48
2018-08-06T21:38:39.009Z,24.51
2018-08-06T21:41:07.507Z,24.42
2018-08-06T21:43:35.882Z,24.35
2018-08-06T21:46:04.330Z,24.26
2018-08-06T21:48:33.120Z,23.96
2018-08-06T21:51:01.592Z,23.81
2018-08-06T21:53:30.046Z,23.76
2018-08-06T21:55:58.936Z,23.74
2018-08-06T21:58:27.315Z,23.74
2018-08-06T22:00:55.735Z,23.75
2018-08-06T22:03:24.130Z,23.78
2018-08-06T22:05:52.653Z,23.87
2018-08-06T22:08:21.072Z,23.78
2018-08-06T22:10:49.504Z,23.81
2018-08-06T22:13:18.001Z,23.79
2018-08-06T22:15:46.489Z,23.87
2018-08-06T22:18:14.925Z,23.93
2018-08-06T22:20:43.470Z,23.88
2018-08-06T22:23:12.008Z,23.65
2018-08-06T22:25:40.449Z,23.21
2018-08-06T22:28:10.970Z,22.97
2018-08-06T22:30:39.397Z,22.96
2018-08-06T22:33:07.867Z,22.93
2018-08-06T22:35:36.330Z,23.06
2018-08-06T22:38:04.793Z,23.16
2018-08-06T22:40:33.276Z,23.20
2018-08-06T22:43:01.810Z,23.22
2018-08-06T22:45:30.220Z,23.29
2018-08-06T22:47:58.611Z,23.35
2018-08-06T22:50:27.059Z,23.44
2018-08-06T22:52:55.474Z,23.51
2018-08-06T22:55:23.911Z,23.56
2018-08-06T22:57:52.343Z,23.52
2018-08-06T23:00:20.955Z,23.52
2018-08-06T23:02:49.294Z,23.34
2018-08-06T23:05:17.747Z,23.25
2018-08-06T23:07:46.196Z,23.28
2018-08-06T23:10:17.630Z,23.30
2018-08-06T23:12:46.300Z,23.32
2018-08-06T23:15:16.101Z,23.22
2018-08-06T23:17:44.942Z,23.16
2018-08-06T23:20:13.455Z,23.04
2018-08-06T23:22:41.899Z,22.98
2018-08-06T23:25:10.428Z,22.95
2018-08-06T23:27:39.780Z,22.85
2018-08-06T23:30:11.638Z,22.72
2018-08-06T23:32:40.589Z,22.70
2018-08-06T23:35:10.491Z,22.62
2018-08-06T23:37:39.696Z,22.62
2018-08-06T23:40:09.110Z,22.58
2018-08-06T23:42:38.102Z,22.47
2018-08-06T23:45:07.492Z,22.41
2018-08-06T23:47:36.111Z,22.41
2018-08-06T23:50:05.695Z,22.40
2018-08-06T23:52:34.216Z,22.51
2018-08-06T23:55:02.640Z,22.58
2018-08-06T23:57:31.084Z,22.54
2018-08-06T23:59:59.530Z,22.53
